createdAt,value
2019-03-31T00:02:55.307Z,62.44
2019-03-31T00:07:59.964Z,58.25
2019-03-31T00:13:08.101Z,66.44
2019-03-31T00:18:16.072Z,65.22
2019-03-31T00:23:25.736Z,61.63
2019-03-31T00:28:32.800Z,55.00
2019-03-31T00:33:39.162Z,59.00
2019-03-31T00:38:49.792Z,57.33
2019-03-31T00:43:57.857Z,59.89
2019-03-31T00:49:02.455Z,58.00
2019-03-31T00:54:11.231Z,55.25
2019-03-31T00:59:20.182Z,51.63
2019-03-31T01:04:26.666Z,49.75
2019-03-31T01:09:35.626Z,50.50
2019-03-31T01:14:45.847Z,52.44
2019-03-31T01:19:56.784Z,59.11
2019-03-31T01:24:59.967Z,53.00
2019-03-31T01:30:05.264Z,54.50
2019-03-31T01:35:10.972Z,51.00
2019-03-31T01:40:15.623Z,52.00
2019-03-31T01:45:22.089Z,51.50
2019-03-31T01:50:29.274Z,52.33
2019-03-31T01:55:33.927Z,53.00
2019-03-31T02:00:41.160Z,53.33
2019-03-31T02:05:45.914Z,55.50
2019-03-31T02:10:54.013Z,57.44
2019-03-31T02:16:00.462Z,53.38
2019-03-31T02:21:09.460Z,53.50
2019-03-31T02:26:15.672Z,53.00
2019-03-31T02:31:24.611Z,56.63
2019-03-31T02:36:29.291Z,51.50
2019-03-31T02:41:37.583Z,57.11
2019-03-31T02:46:45.129Z,59.56
2019-03-31T02:51:56.083Z,60.44
2019-03-31T02:57:05.817Z,59.00
2019-03-31T03:02:12.091Z,53.00
2019-03-31T03:07:19.776Z,52.89
2019-03-31T03:12:29.987Z,51.00
2019-03-31T03:17:34.815Z,53.00
2019-03-31T03:22:45.214Z,51.25
2019-03-31T03:27:54.191Z,51.00
2019-03-31T03:33:15.020Z,50.75
2019-03-31T03:38:07.765Z,49.88
2019-03-31T03:43:13.919Z,53.63
2019-03-31T03:48:20.253Z,52.00
2019-03-31T03:53:29.799Z,54.44
2019-03-31T03:58:37.033Z,59.56
2019-03-31T04:03:46.592Z,60.67
2019-03-31T04:08:53.810Z,60.43
2019-03-31T04:14:04.151Z,54.67
2019-03-31T04:19:07.760Z,58.50
2019-03-31T04:24:13.013Z,55.86
2019-03-31T04:29:17.389Z,49.75
2019-03-31T04:34:25.350Z,53.00
2019-03-31T04:39:32.231Z,51.00
2019-03-31T04:44:37.237Z,45.29
2019-03-31T04:49:44.700Z,41.33
2019-03-31T04:54:50.738Z,39.00
2019-03-31T04:59:57.829Z,36.38
2019-03-31T05:05:07.147Z,37.75
2019-03-31T05:10:13.906Z,35.00
2019-03-31T05:15:18.858Z,36.00
2019-03-31T05:20:22.325Z,36.00
2019-03-31T05:25:30.618Z,37.00
2019-03-31T05:30:37.455Z,40.00
2019-03-31T05:35:42.483Z,43.00
2019-03-31T05:40:46.580Z,42.75
2019-03-31T05:45:53.502Z,41.00
2019-03-31T05:51:02.859Z,41.33
2019-03-31T05:56:11.410Z,43.00
2019-03-31T06:01:16.241Z,44.00
2019-03-31T06:06:20.038Z,50.40
2019-03-31T06:11:31.753Z,48.00
2019-03-31T06:16:42.436Z,48.86
2019-03-31T06:21:52.628Z,50.50
2019-03-31T06:27:02.649Z,55.44
2019-03-31T06:32:10.310Z,51.67
2019-03-31T06:37:15.866Z,48.63
2019-03-31T06:42:23.402Z,46.00
2019-03-31T06:47:32.542Z,49.25
2019-03-31T06:52:46.619Z,52.00
2019-03-31T06:57:58.099Z,56.64
2019-03-31T07:03:06.550Z,52.36
2019-03-31T07:08:17.294Z,49.89
2019-03-31T07:13:23.439Z,50.00
2019-03-31T07:18:36.239Z,53.00
2019-03-31T07:23:45.486Z,45.38
2019-03-31T07:28:49.734Z,44.00
2019-03-31T07:33:54.246Z,43.00
2019-03-31T07:38:58.392Z,41.00
2019-03-31T07:44:02.219Z,33.00
2019-03-31T07:49:05.485Z,36.67
2019-03-31T07:54:11.391Z,38.00
2019-03-31T07:59:15.175Z,34.20
2019-03-31T08:04:21.522Z,40.38
2019-03-31T08:09:27.914Z,42.00
2019-03-31T08:14:31.794Z,44.00
2019-03-31T08:19:37.550Z,38.43
2019-03-31T08:24:41.554Z,39.00
2019-03-31T08:29:55.428Z,38.25
2019-03-31T08:34:55.955Z,40.63
2019-03-31T08:40:05.502Z,33.25
2019-03-31T08:45:12.672Z,35.00
2019-03-31T08:50:16.689Z,39.00
2019-03-31T08:55:20.659Z,38.00
2019-03-31T09:00:28.758Z,32.86
2019-03-31T09:05:33.186Z,32.00
2019-03-31T09:10:40.980Z,35.00
2019-03-31T09:15:47.742Z,27.37
2019-03-31T09:20:51.847Z,32.00
2019-03-31T09:25:56.226Z,33.50
2019-03-31T09:31:02.052Z,38.00
2019-03-31T09:36:16.122Z,33.88
2019-03-31T09:41:16.126Z,31.00
2019-03-31T09:46:23.168Z,30.86
2019-03-31T09:51:30.646Z,32.25
2019-03-31T09:56:36.242Z,30.57
2019-03-31T10:01:44.398Z,26.12
2019-03-31T10:06:51.262Z,30.88
2019-03-31T10:11:54.999Z,31.40
2019-03-31T10:16:58.446Z,36.00
2019-03-31T10:22:06.814Z,32.13
2019-03-31T10:27:11.203Z,43.75
2019-03-31T10:32:16.831Z,32.38
2019-03-31T10:37:22.798Z,32.88
2019-03-31T10:42:29.936Z,34.00
2019-03-31T10:47:35.659Z,36.43
2019-03-31T10:52:42.823Z,27.87
2019-03-31T10:57:48.419Z,32.86
2019-03-31T11:02:54.810Z,27.57
2019-03-31T11:08:04.650Z,27.00
2019-03-31T11:13:11.276Z,34.00
2019-03-31T11:18:15.570Z,25.75
2019-03-31T11:23:21.621Z,26.87
2019-03-31T11:28:26.555Z,21.83
2019-03-31T11:33:32.798Z,24.00
2019-03-31T11:38:40.596Z,27.00
2019-03-31T11:43:48.987Z,29.00
2019-03-31T11:48:52.687Z,19.00
2019-03-31T11:53:57.752Z,20.00
2019-03-31T11:59:03.942Z,20.00
2019-03-31T12:04:09.103Z,19.00
2019-03-31T12:09:16.918Z,23.50
2019-03-31T12:14:19.840Z,22.00
2019-03-31T12:19:27.086Z,21.57
2019-03-31T12:24:35.883Z,21.12
2019-03-31T12:29:43.723Z,21.25
2019-03-31T12:34:49.048Z,25.00
2019-03-31T12:39:56.624Z,34.29
2019-03-31T12:45:07.018Z,27.36
2019-03-31T12:50:10.476Z,31.00
2019-03-31T12:55:14.269Z,26.67
2019-03-31T13:00:20.083Z,27.00
2019-03-31T13:05:28.421Z,24.00
2019-03-31T13:10:35.310Z,21.71
2019-03-31T13:15:38.979Z,26.00
2019-03-31T13:20:42.430Z,22.00
2019-03-31T13:25:47.712Z,22.29
2019-03-31T13:30:52.314Z,26.67
2019-03-31T13:35:57.527Z,26.33
2019-03-31T13:41:02.738Z,26.00
2019-03-31T13:46:07.298Z,36.00
2019-03-31T13:51:14.138Z,33.89
2019-03-31T13:56:22.187Z,33.71
2019-03-31T14:01:28.521Z,27.43
2019-03-31T14:06:33.931Z,27.00
2019-03-31T14:11:40.235Z,30.00
2019-03-31T14:16:44.573Z,31.00
2019-03-31T14:21:53.939Z,28.71
2019-03-31T14:26:59.980Z,29.75
2019-03-31T14:32:03.609Z,29.75
2019-03-31T14:37:07.742Z,31.00
2019-03-31T14:42:12.062Z,30.25
2019-03-31T14:47:16.159Z,32.25
2019-03-31T14:52:27.269Z,22.33
2019-03-31T14:57:27.023Z,25.37
2019-03-31T15:02:34.815Z,27.71
2019-03-31T15:07:38.299Z,24.00
2019-03-31T15:12:44.567Z,30.00
2019-03-31T15:17:48.208Z,29.67
2019-03-31T15:22:53.083Z,31.14
2019-03-31T15:28:01.881Z,27.22
2019-03-31T15:33:09.787Z,26.00
2019-03-31T15:38:17.742Z,27.00
2019-03-31T15:43:23.518Z,27.57
2019-03-31T15:48:29.433Z,21.29
2019-03-31T15:53:35.262Z,30.00
2019-03-31T15:58:38.954Z,33.67
2019-03-31T16:03:44.839Z,19.75
2019-03-31T16:08:50.308Z,21.71
2019-03-31T16:13:53.520Z,33.67
2019-03-31T16:18:56.658Z,22.67
2019-03-31T16:24:02.922Z,27.62
2019-03-31T16:29:08.157Z,16.57
2019-03-31T16:34:14.830Z,18.29
2019-03-31T16:39:20.047Z,18.43
2019-03-31T16:44:27.094Z,19.75
2019-03-31T16:49:34.459Z,22.62
2019-03-31T16:54:41.923Z,19.00
2019-03-31T16:59:48.391Z,28.62
2019-03-31T17:04:51.594Z,20.00
2019-03-31T17:09:54.980Z,22.00
2019-03-31T17:15:00.404Z,18.86
2019-03-31T17:20:10.534Z,24.25
2019-03-31T17:25:14.003Z,28.67
2019-03-31T17:30:18.364Z,27.67
2019-03-31T17:35:24.474Z,32.13
2019-03-31T17:45:32.776Z,29.50
2019-03-31T17:50:36.792Z,27.50
2019-03-31T17:55:40.866Z,33.67
2019-03-31T18:00:44.863Z,34.50
2019-03-31T18:05:48.974Z,35.67
2019-03-31T18:11:01.382Z,36.44
2019-03-31T18:16:09.741Z,52.64
2019-03-31T18:21:15.994Z,35.89
2019-03-31T18:26:20.907Z,37.00
2019-03-31T18:31:35.661Z,33.44
2019-03-31T18:36:49.026Z,40.00
2019-03-31T18:41:59.647Z,38.13
2019-03-31T18:47:03.385Z,38.00
2019-03-31T18:52:11.248Z,33.40
2019-03-31T18:57:23.817Z,38.27
2019-03-31T19:02:31.151Z,40.00
2019-03-31T19:07:58.374Z,33.00
2019-03-31T19:13:02.205Z,35.67
2019-03-31T19:18:06.753Z,34.00
2019-03-31T19:23:10.371Z,36.00
2019-03-31T19:28:14.935Z,31.50
2019-03-31T19:33:18.792Z,32.00
2019-03-31T19:38:23.440Z,36.00
2019-03-31T19:43:26.845Z,30.00
2019-03-31T19:48:32.638Z,32.88
2019-03-31T19:53:38.855Z,33.25
2019-03-31T19:58:46.057Z,36.13
2019-03-31T20:03:54.600Z,32.33
2019-03-31T20:09:01.075Z,29.29
2019-03-31T20:14:09.080Z,24.43
2019-03-31T20:19:13.894Z,49.00
2019-03-31T20:24:37.978Z,32.00
2019-03-31T20:29:42.210Z,42.75
2019-03-31T20:34:45.855Z,37.00
2019-03-31T20:39:57.869Z,46.00
2019-03-31T20:45:02.428Z,32.00
2019-03-31T20:50:08.811Z,27.25
2019-03-31T20:55:17.434Z,37.13
2019-03-31T21:00:24.350Z,33.88
2019-03-31T21:05:33.734Z,31.00
2019-03-31T21:10:42.280Z,26.87
2019-03-31T21:15:49.353Z,32.00
2019-03-31T21:20:58.027Z,35.88
2019-03-31T21:26:06.695Z,34.75
2019-03-31T21:31:14.537Z,28.00
2019-03-31T21:36:20.572Z,33.50
2019-03-31T21:41:23.773Z,33.00
2019-03-31T21:46:30.039Z,32.00
2019-03-31T21:51:37.093Z,25.62
2019-03-31T21:56:44.065Z,29.63
2019-03-31T22:01:52.752Z,27.62
2019-03-31T22:06:56.239Z,23.33
2019-03-31T22:12:02.018Z,30.00
2019-03-31T22:17:05.215Z,37.67
2019-03-31T22:22:10.184Z,26.14
2019-03-31T22:27:13.966Z,26.00
2019-03-31T22:32:20.294Z,24.83
2019-03-31T22:37:27.775Z,25.12
2019-03-31T22:42:31.106Z,20.33
2019-03-31T22:47:38.723Z,22.00
2019-03-31T22:52:42.562Z,23.25
2019-03-31T22:57:45.969Z,19.50
2019-03-31T23:02:53.629Z,22.62
2019-03-31T23:07:57.708Z,21.75
2019-03-31T23:13:04.095Z,26.00
2019-03-31T23:18:09.331Z,19.00
2019-03-31T23:23:16.986Z,22.37
2019-03-31T23:28:24.763Z,22.71
2019-03-31T23:33:28.914Z,18.50
2019-03-31T23:38:36.498Z,20.88
2019-03-31T23:43:42.372Z,19.86
2019-03-31T23:48:45.811Z,32.00
2019-03-31T23:53:52.412Z,12.00
2019-03-31T23:58:59.004Z,20.14
